• Join FlightAware (Why Join?)
  • Login
  • US Flag 
01:38AM EDT


 

Airport Tracker/Info


-or-


 

Live Flight TrackerFlight Track Log ✈ AAY860 ✈ 02-Jul-2014 ✈ KPIE - KLEX

Flight Track Log - Related Links

Times and Time Zones

All times are in EDT time to prevent confusion due to time zone crossing. See the AAY860 flight status page for this flight to view local times or setup timezone preferences in your user account.

Time Position Orientation Groundspeed Altitude Reporting Facility
EDT Latitude Longitude Course Direction KTS MPH feet Rate Location/Type
06:27AM 27.9333 -82.7000 330° Northwest 163 188 800  Level Tampa TRACON
06:28AM 27.9667 -82.6833 24° Northeast 169 194 2,200 1,680 Climbing Tampa TRACON
06:29AM 28.0333 -82.6667 12° North 256 295 4,100 2,220 Climbing Tampa TRACON
06:30AM 28.1000 -82.6833 348° North 267 307 6,900 2,280 Climbing Tampa TRACON
06:32AM 28.1978 -82.7158 344° North 279 321 10,100 1,680 Climbing Jacksonville Center
06:33AM 28.7050 -83.1875 330° Northwest  Level FlightAware Approximate
06:33AM 28.2897 -82.7417 346° North 294 338 11,300  Level Jacksonville Center
06:34AM 28.3836 -82.7722 344° North 325 374 13,400 1,980 Climbing Jacksonville Center
06:35AM 28.4817 -82.8053 343° North 346 398 15,300 1,860 Climbing Jacksonville Center
06:36AM 28.5714 -82.8714 327° Northwest 364 419 17,200 1,800 Climbing Jacksonville Center
06:37AM 28.6653 -82.9375 328° Northwest 382 440 18,900 1,740 Climbing Jacksonville Center
06:38AM 28.7656 -83.0158 326° Northwest 395 455 20,700 1,560 Climbing Jacksonville Center
06:39AM 28.8636 -83.0894 327° Northwest 407 468 22,100 1,260 Climbing Jacksonville Center
06:40AM 28.9636 -83.1631 327° Northwest 419 482 23,300 1,200 Climbing Jacksonville Center
06:41AM 29.0678 -83.2394 327° Northwest 429 494 24,600 1,200 Climbing Jacksonville Center
06:42AM 29.1511 -83.3206 320° Northwest 435 501 25,700 1,020 Climbing Jacksonville Center
06:43AM 29.2486 -83.4161 319° Northwest 446 513 26,700 1,020 Climbing Jacksonville Center
06:44AM 29.3486 -83.5097 321° Northwest 456 525 27,800 1,020 Climbing Jacksonville Center
06:45AM 29.4503 -83.6033 321° Northwest 461 531 28,800 900 Climbing Jacksonville Center
06:46AM 29.5542 -83.6994 321° Northwest 471 542 29,700 960 Climbing Jacksonville Center
06:47AM 29.6600 -83.7911 323° Northwest 476 548 30,800 1,140 Climbing Jacksonville Center
06:48AM 29.7914 -83.8211 349° North 466 536 32,000 1,080 Climbing Jacksonville Center
06:49AM 29.9247 -83.8417 352° North 466 536 33,000 1,020 Climbing Jacksonville Center
06:50AM 30.0542 -83.8622 352° North 472 543 34,100 960 Climbing Jacksonville Center
06:51AM 30.1833 -83.8803 353° North 467 537 35,000 780 Climbing Jacksonville Center
06:52AM 30.3147 -83.9008 352° North 467 537 35,700 480 Climbing Jacksonville Center
06:53AM 30.4461 -83.9192 353° North 467 537 36,000 120 Climbing Jacksonville Center
06:54AM 30.5817 -83.9397 353° North 467 537 36,000  Level Jacksonville Center
06:55AM 30.7108 -83.9631 351° North 461 531 36,000  Level Jacksonville Center
06:56AM 30.8403 -83.9814 353° North 466 536 36,000  Level Jacksonville Center
06:57AM 30.9675 -84.0022 352° North 466 536 36,000  Level Jacksonville Center
06:59AM 31.2144 -84.0436 352° North 472 543 36,000  Level Atlanta Center
07:00AM 31.3417 -84.0631 353° North 472 543 36,000  Level Atlanta Center
07:01AM 31.4836 -84.0875 352° North 467 537 36,000  Level Atlanta Center
07:02AM 31.6131 -84.1072 353° North 467 537 36,000  Level Atlanta Center
07:03AM 31.7403 -84.1292 352° North 467 537 36,000  Level Atlanta Center
07:04AM 31.8697 -84.1489 353° North 467 537 36,000  Level Atlanta Center
07:05AM 31.9992 -84.1564 357° North 467 537 36,000  Level Atlanta Center
07:06AM 32.1264 -84.1639 357° North 461 531 36,000  Level Atlanta Center
07:07AM 32.2558 -84.1739 356° North 461 531 36,000  Level Atlanta Center
07:08AM 32.3872 -84.1814 357° North 461 531 36,000  Level Atlanta Center
07:09AM 32.5167 -84.1917 356° North 461 531 36,000  Level Atlanta Center
07:10AM 32.6461 -84.1992 357° North 461 531 36,000  Level Atlanta Center
07:11AM 32.7756 -84.2092 356° North 461 531 36,000  Level Atlanta Center
07:12AM 32.8903 -84.2194 356° North 461 531 36,000  Level Atlanta Center
07:13AM 33.0239 -84.2294 356° North 461 531 36,000  Level Atlanta Center
07:14AM 33.1575 -84.2372 357° North 466 536 36,000  Level Atlanta Center
07:15AM 33.2889 -84.2475 356° North 466 536 36,000  Level Atlanta Center
07:20AM 34.0208 -84.2980 356° North 467 537 36,000  Level FlightAware ADS-B (KDZJ)
07:21AM 34.1081 -84.3045 357° North 468 539 36,000  Level FlightAware ADS-B (KDZJ)
07:21AM 34.1964 -84.3109 357° North 465 535 36,000  Level FlightAware ADS-B (KDZJ)
07:22AM 34.2834 -84.3173 357° North 470 541 36,000 -480 Level FlightAware ADS-B (KDZJ)
07:23AM 34.3715 -84.3238 357° North 469 540 35,400 -900 Descending FlightAware ADS-B (KDZJ)
07:23AM 34.4572 -84.3304 356° North 467 537 34,800 -1,020 Descending FlightAware ADS-B (KDZJ)
07:24AM 34.5463 -84.3369 357° North 471 542 34,100 -600 Descending FlightAware ADS-B (KDZJ)
07:25AM 34.6338 -84.3434 356° North 468 539 34,000 -120 Descending FlightAware ADS-B (KDZJ)
07:25AM 34.7183 -84.3497 356° North 467 537 34,000  Level FlightAware ADS-B (KDZJ)
07:26AM 34.8050 -84.3563 356° North 468 539 34,000  Level FlightAware ADS-B (KDZJ)
07:27AM 34.8964 -84.3632 356° North 466 536 34,000  Level FlightAware ADS-B (KDZJ)
07:27AM 34.9862 -84.3700 356° North 466 536 34,000  Level FlightAware ADS-B (KDZJ)
07:28AM 35.0722 -84.3764 356° North 465 535 34,000  Level FlightAware ADS-B (KDZJ)
07:29AM 35.1601 -84.3831 356° North 465 535 34,000  Level FlightAware ADS-B (KDZJ)
07:29AM 35.2438 -84.3894 357° North 465 535 34,000  Level FlightAware ADS-B (KDZJ)
07:30AM 35.3386 -84.3965 356° North 466 536 34,000  Level FlightAware ADS-B (KDZJ)
07:31AM 35.4237 -84.4030 356° North 468 539 34,000 -540 Level FlightAware ADS-B (KDZJ)
07:32AM 35.5498 -84.4126 357° North 480 552 33,100 -720 Descending FlightAware ADS-B (KMDQ)
07:37AM 36.2619 -84.4677 356° North 461 531 29,600 -900 Descending FlightAware ADS-B (KBRY)
07:39AM 36.4203 -84.4794 356° North 458 527 27,200 -1,920 Descending Indianapolis Center
07:40AM 36.5436 -84.4892 356° North 440 506 25,200 -1,620 Descending Indianapolis Center
07:41AM 36.6600 -84.4981 356° North 424 488 24,000 -1,200 Descending Indianapolis Center
07:42AM 36.7708 -84.5072 356° North 418 481 22,800 -1,800 Descending Indianapolis Center
07:43AM 36.8878 -84.5169 356° North 418 481 20,400 -2,160 Descending Indianapolis Center
07:44AM 37.0206 -84.5264 357° North 404 465 18,400 -1,800 Descending Indianapolis Center
07:45AM 37.1297 -84.5358 356° North 389 448 16,800 -1,620 Descending Indianapolis Center
07:46AM 37.2344 -84.5436 357° North 379 436 15,200 -1,620 Descending Indianapolis Center
07:47AM 37.3358 -84.5511 357° North 368 423 13,600 -1,200 Descending Indianapolis Center
07:52AM 37.7751 -84.5875 357° North 288 331 8,400 -1,020 Descending FlightAware ADS-B (KBRY)
07:53AM 37.8586 -84.5714 357° North 289 333 7,500 -1,260 Descending Indianapolis Center
07:54AM 37.9511 -84.5497 10° North 287 330 5,600 -1,620 Descending Indianapolis Center
07:55AM 38.0294 -84.5364 North 287 330 4,300 -960 Descending Indianapolis Center
07:56AM 38.0906 -84.5036 23° Northeast 269 310 3,700 -540 Descending Indianapolis Center
07:57AM 38.1247 -84.4461 53° Northeast 229 264 3,200 -300 Descending Indianapolis Center
07:58AM 38.1594 -84.4058 42° Northeast 213 245 3,100  Descending Indianapolis Center
07:59AM 38.1564 -84.4578 266° West 185 213 3,200  Climbing Indianapolis Center
08:00AM 38.1328 -84.4994 234° Southwest 160 184 3,200 -300 Level Indianapolis Center
08:01AM 38.1017 -84.5336 221° Southwest 151 174 2,600 -780 Descending Indianapolis Center
08:02AM 38.0678 -84.5706 221° Southwest 145 167 1,700 -900 Descending Indianapolis Center